createdAt,value
2023-03-27T00:01:28.415Z,100.00
2023-03-27T00:03:56.302Z,100.00
2023-03-27T00:06:25.321Z,100.00
2023-03-27T00:08:53.414Z,100.00
2023-03-27T00:11:25.100Z,100.00
2023-03-27T00:13:55.014Z,100.00
2023-03-27T00:16:26.952Z,100.00
2023-03-27T00:19:01.214Z,100.00
2023-03-27T00:21:31.407Z,100.00
2023-03-27T00:24:00.574Z,100.00
2023-03-27T00:26:30.670Z,100.00
2023-03-27T00:29:02.772Z,100.00
2023-03-27T00:31:31.852Z,100.00
2023-03-27T00:33:59.517Z,100.00
2023-03-27T00:36:27.373Z,100.00
2023-03-27T00:38:55.016Z,100.00
2023-03-27T00:41:23.074Z,100.00
2023-03-27T00:43:56.425Z,100.00
2023-03-27T00:46:42.442Z,100.00
2023-03-27T00:49:15.220Z,100.00
2023-03-27T00:51:49.314Z,100.00
2023-03-27T00:54:22.237Z,100.00
2023-03-27T00:56:50.633Z,100.00
2023-03-27T00:59:22.229Z,100.00
2023-03-27T01:01:50.875Z,100.00
2023-03-27T01:04:21.524Z,100.00
2023-03-27T01:06:52.766Z,100.00
2023-03-27T01:09:21.166Z,100.00
2023-03-27T01:12:13.286Z,100.00
2023-03-27T01:15:18.609Z,100.00
2023-03-27T01:18:20.948Z,100.00
2023-03-27T01:21:05.921Z,100.00
2023-03-27T01:24:08.705Z,100.00
2023-03-27T01:27:02.971Z,100.00
2023-03-27T01:29:39.656Z,100.00
2023-03-27T01:32:42.958Z,100.00
2023-03-27T01:35:25.832Z,100.00
2023-03-27T01:38:29.510Z,100.00
2023-03-27T01:41:15.296Z,100.00
2023-03-27T01:43:57.467Z,100.00
2023-03-27T01:46:32.823Z,100.00
2023-03-27T01:49:07.779Z,100.00
2023-03-27T01:51:44.058Z,100.00
2023-03-27T01:54:26.046Z,100.00
2023-03-27T01:57:04.433Z,100.00
2023-03-27T01:59:38.474Z,100.00
2023-03-27T02:02:17.503Z,100.00
2023-03-27T02:04:52.289Z,100.00
2023-03-27T02:07:29.787Z,100.00
2023-03-27T02:10:02.105Z,100.00
2023-03-27T02:12:43.751Z,100.00
2023-03-27T02:15:23.470Z,100.00
2023-03-27T02:18:05.515Z,100.00
2023-03-27T02:20:35.945Z,100.00
2023-03-27T02:23:05.317Z,100.00
2023-03-27T02:25:46.677Z,100.00
2023-03-27T02:28:46.314Z,100.00
2023-03-27T02:31:31.701Z,100.00
2023-03-27T02:34:38.516Z,100.00
2023-03-27T02:37:23.329Z,100.00
2023-03-27T02:40:11.710Z,100.00
2023-03-27T02:43:17.228Z,100.00
2023-03-27T02:46:12.856Z,100.00
2023-03-27T02:48:45.719Z,100.00
2023-03-27T02:51:25.228Z,100.00
2023-03-27T02:54:10.113Z,100.00
2023-03-27T02:56:44.830Z,100.00
2023-03-27T02:59:22.610Z,100.00
2023-03-27T03:01:50.562Z,100.00
2023-03-27T03:04:20.536Z,100.00
2023-03-27T03:06:50.483Z,100.00
2023-03-27T03:09:19.229Z,100.00
2023-03-27T03:11:50.548Z,100.00
2023-03-27T03:14:31.668Z,100.00
2023-03-27T03:16:59.590Z,100.00
2023-03-27T03:19:32.683Z,100.00
2023-03-27T03:22:01.126Z,100.00
2023-03-27T03:24:29.851Z,100.00
2023-03-27T03:26:57.906Z,100.00
2023-03-27T03:29:30.063Z,100.00
2023-03-27T03:31:57.971Z,100.00
2023-03-27T03:34:27.970Z,100.00
2023-03-27T03:36:55.597Z,100.00
2023-03-27T03:39:25.014Z,100.00
2023-03-27T03:41:52.599Z,100.00
2023-03-27T03:44:20.159Z,100.00
2023-03-27T03:46:47.774Z,100.00
2023-03-27T03:49:15.452Z,100.00
2023-03-27T03:51:46.126Z,100.00
2023-03-27T03:54:13.881Z,100.00
2023-03-27T03:56:41.879Z,100.00
2023-03-27T03:59:11.932Z,100.00
2023-03-27T04:01:40.992Z,100.00
2023-03-27T04:04:09.341Z,100.00
2023-03-27T04:06:38.019Z,100.00
2023-03-27T04:09:06.493Z,100.00
2023-03-27T04:11:35.253Z,100.00
2023-03-27T04:14:02.959Z,100.00
2023-03-27T04:16:30.534Z,100.00
2023-03-27T04:18:58.515Z,100.00
2023-03-27T04:21:26.657Z,100.00
2023-03-27T04:24:02.537Z,100.00
2023-03-27T04:26:30.497Z,100.00
2023-03-27T04:28:57.871Z,100.00
2023-03-27T04:31:26.334Z,100.00
2023-03-27T04:33:54.054Z,100.00
2023-03-27T04:36:21.577Z,100.00
2023-03-27T04:38:49.919Z,100.00
2023-03-27T04:41:22.297Z,100.00
2023-03-27T04:43:50.042Z,100.00
2023-03-27T04:46:18.104Z,100.00
2023-03-27T04:48:45.649Z,100.00
2023-03-27T04:51:12.983Z,100.00
2023-03-27T04:53:43.051Z,100.00
2023-03-27T04:56:11.274Z,100.00
2023-03-27T04:58:41.474Z,100.00
2023-03-27T05:01:10.085Z,100.00
2023-03-27T05:03:39.171Z,100.00
2023-03-27T05:06:08.461Z,100.00
2023-03-27T05:08:36.201Z,100.00
2023-03-27T05:11:04.816Z,100.00
2023-03-27T05:13:34.038Z,100.00
2023-03-27T05:16:02.102Z,100.00
2023-03-27T05:18:30.951Z,100.00
2023-03-27T05:21:06.108Z,100.00
2023-03-27T05:23:34.294Z,100.00
2023-03-27T05:26:01.655Z,100.00
2023-03-27T05:28:31.377Z,100.00
2023-03-27T05:30:59.372Z,100.00
2023-03-27T05:33:27.227Z,100.00
2023-03-27T05:35:54.837Z,100.00
2023-03-27T05:38:22.944Z,100.00
2023-03-27T05:40:58.239Z,100.00
2023-03-27T05:43:26.471Z,100.00
2023-03-27T05:45:53.942Z,100.00
2023-03-27T05:48:21.754Z,100.00
2023-03-27T05:50:49.189Z,100.00
2023-03-27T05:53:17.464Z,100.00
2023-03-27T05:55:45.961Z,100.00
2023-03-27T05:58:19.926Z,100.00
2023-03-27T06:00:48.055Z,100.00
2023-03-27T06:03:16.405Z,100.00
2023-03-27T06:05:44.160Z,100.00
2023-03-27T06:08:11.842Z,100.00
2023-03-27T06:10:43.752Z,100.00
2023-03-27T06:13:16.191Z,100.00
2023-03-27T06:15:44.634Z,100.00
2023-03-27T06:18:12.373Z,100.00
2023-03-27T06:20:42.827Z,100.00
2023-03-27T06:23:10.815Z,100.00
2023-03-27T06:25:39.461Z,100.00
2023-03-27T06:28:11.043Z,100.00
2023-03-27T06:30:39.004Z,100.00
2023-03-27T06:33:08.022Z,100.00
2023-03-27T06:35:37.168Z,100.00
2023-03-27T06:38:05.232Z,100.00
2023-03-27T06:40:35.545Z,100.00
2023-03-27T06:43:06.370Z,100.00
2023-03-27T06:45:46.192Z,100.00
2023-03-27T06:48:21.266Z,100.00
2023-03-27T06:50:52.559Z,100.00
2023-03-27T06:55:52.658Z,100.00
2023-03-27T06:58:20.879Z,100.00
2023-03-27T07:00:49.845Z,100.00
2023-03-27T07:03:19.993Z,100.00
2023-03-27T07:05:49.213Z,100.00
2023-03-27T07:08:24.529Z,100.00
2023-03-27T07:13:25.740Z,100.00
2023-03-27T07:15:53.234Z,100.00
2023-03-27T07:18:22.696Z,100.00
2023-03-27T07:20:50.542Z,100.00
2023-03-27T07:23:18.139Z,100.00
2023-03-27T07:25:45.911Z,100.00
2023-03-27T07:28:16.730Z,100.00
2023-03-27T07:30:44.184Z,100.00
2023-03-27T07:33:12.682Z,100.00
2023-03-27T07:35:45.872Z,100.00
2023-03-27T07:38:14.494Z,100.00
2023-03-27T07:40:46.958Z,100.00
2023-03-27T07:43:14.598Z,100.00
2023-03-27T07:45:42.850Z,100.00
2023-03-27T07:48:16.256Z,100.00
2023-03-27T07:50:45.325Z,100.00
2023-03-27T07:53:33.713Z,100.00
2023-03-27T07:56:00.679Z,100.00
2023-03-27T07:58:29.119Z,100.00
2023-03-27T08:01:02.450Z,100.00
2023-03-27T08:03:31.332Z,100.00
2023-03-27T08:06:01.118Z,100.00
2023-03-27T08:08:28.827Z,100.00
2023-03-27T08:10:57.158Z,100.00
2023-03-27T08:13:29.737Z,100.00
2023-03-27T08:16:14.978Z,100.00
2023-03-27T08:18:42.989Z,100.00
2023-03-27T08:21:11.848Z,100.00
2023-03-27T08:23:41.055Z,100.00
2023-03-27T08:26:09.512Z,100.00
2023-03-27T08:28:37.705Z,100.00
2023-03-27T08:31:11.796Z,100.00
2023-03-27T08:33:39.891Z,100.00
2023-03-27T08:36:10.278Z,100.00
2023-03-27T08:38:39.632Z,100.00
2023-03-27T08:41:28.709Z,98.10
2023-03-27T08:44:01.445Z,95.20
2023-03-27T08:46:38.360Z,92.74
2023-03-27T08:49:15.183Z,92.00
2023-03-27T08:51:53.997Z,92.47
2023-03-27T08:54:31.920Z,88.59
2023-03-27T08:57:00.237Z,89.41
2023-03-27T08:59:31.548Z,92.73
2023-03-27T09:02:26.970Z,90.02
2023-03-27T09:05:28.637Z,88.00
2023-03-27T09:07:59.258Z,90.69
2023-03-27T09:10:59.996Z,85.72
2023-03-27T09:13:38.292Z,88.29
2023-03-27T09:16:21.681Z,87.25
2023-03-27T09:19:07.985Z,87.61
2023-03-27T09:21:38.471Z,82.84
2023-03-27T09:24:17.858Z,85.33
2023-03-27T09:26:47.592Z,82.38
2023-03-27T09:29:24.789Z,79.76
2023-03-27T09:31:56.410Z,74.52
2023-03-27T09:34:30.620Z,75.07
2023-03-27T09:36:59.824Z,79.17
2023-03-27T09:39:34.243Z,73.70
2023-03-27T09:42:17.361Z,74.48
2023-03-27T09:44:50.603Z,73.59
2023-03-27T09:47:36.519Z,71.33
2023-03-27T09:50:13.122Z,68.92
2023-03-27T09:52:41.952Z,67.11
2023-03-27T09:55:27.048Z,68.77
2023-03-27T09:58:06.391Z,69.47
2023-03-27T10:00:35.108Z,68.15
2023-03-27T10:03:08.286Z,67.96
2023-03-27T10:05:36.530Z,63.64
2023-03-27T10:08:30.660Z,60.33
2023-03-27T10:10:59.332Z,63.05
2023-03-27T10:13:30.106Z,63.50
2023-03-27T10:16:05.331Z,71.52
2023-03-27T10:18:42.305Z,85.21
2023-03-27T10:21:18.832Z,85.80
2023-03-27T10:23:49.789Z,90.50
2023-03-27T10:26:21.175Z,85.83
2023-03-27T10:28:51.788Z,87.95
2023-03-27T10:31:30.145Z,89.15
2023-03-27T10:34:02.565Z,95.73
2023-03-27T10:36:38.083Z,95.78
2023-03-27T10:39:12.966Z,94.90
2023-03-27T10:41:40.900Z,98.81
2023-03-27T10:44:18.595Z,96.20
2023-03-27T10:46:46.874Z,97.82
2023-03-27T10:49:42.711Z,99.82
2023-03-27T10:52:28.115Z,99.67
2023-03-27T10:55:29.066Z,99.24
2023-03-27T10:58:05.352Z,98.23
2023-03-27T11:00:41.602Z,99.10
2023-03-27T11:03:45.228Z,94.50
2023-03-27T11:06:16.902Z,96.99
2023-03-27T11:09:05.270Z,97.61
2023-03-27T11:11:41.262Z,100.00
2023-03-27T11:14:19.902Z,99.38
2023-03-27T11:16:57.421Z,100.00
2023-03-27T11:19:31.178Z,100.00
2023-03-27T11:22:10.794Z,100.00
2023-03-27T11:24:47.799Z,100.00
2023-03-27T11:27:23.442Z,100.00
2023-03-27T11:30:25.703Z,100.00
2023-03-27T11:33:15.459Z,100.00
2023-03-27T11:35:52.683Z,100.00
2023-03-27T11:38:28.897Z,100.00
2023-03-27T11:40:56.854Z,100.00
2023-03-27T11:43:24.896Z,100.00
2023-03-27T11:46:15.193Z,100.00
2023-03-27T11:49:27.559Z,100.00
2023-03-27T11:52:33.460Z,100.00
2023-03-27T11:55:23.975Z,98.71
2023-03-27T11:58:04.382Z,95.60
2023-03-27T12:00:45.161Z,97.05
2023-03-27T12:03:23.647Z,88.88
2023-03-27T12:06:16.824Z,82.50
2023-03-27T12:09:23.481Z,80.76
2023-03-27T12:12:29.922Z,83.77
2023-03-27T12:15:15.106Z,87.25
2023-03-27T12:18:23.931Z,82.11
2023-03-27T12:21:18.770Z,81.23
2023-03-27T12:23:57.259Z,77.70
2023-03-27T12:27:03.154Z,71.51
2023-03-27T12:29:58.422Z,69.05
2023-03-27T12:32:33.828Z,65.73
2023-03-27T12:35:09.855Z,66.37
2023-03-27T12:37:43.045Z,69.09
2023-03-27T12:40:33.009Z,73.14
2023-03-27T12:43:21.705Z,75.30
2023-03-27T12:46:24.757Z,73.53
2023-03-27T12:48:58.285Z,71.47
2023-03-27T12:51:43.892Z,68.57
2023-03-27T12:54:14.329Z,58.53
2023-03-27T12:56:42.392Z,57.28
2023-03-27T12:59:29.533Z,54.31
2023-03-27T13:02:08.868Z,51.30
2023-03-27T13:05:26.346Z,50.69
2023-03-27T13:08:35.179Z,45.08
2023-03-27T13:11:28.710Z,40.83
2023-03-27T13:17:07.658Z,39.16
2023-03-27T13:19:59.733Z,39.61
2023-03-27T13:23:03.251Z,39.01
2023-03-27T13:25:50.582Z,38.57
2023-03-27T13:28:35.609Z,39.04
2023-03-27T13:31:05.966Z,37.89
2023-03-27T13:33:35.896Z,38.03
2023-03-27T13:36:14.498Z,37.19
2023-03-27T13:38:54.320Z,33.69
2023-03-27T13:41:40.978Z,36.00
2023-03-27T13:44:11.362Z,37.02
2023-03-27T13:46:48.132Z,36.38
2023-03-27T13:49:35.584Z,36.44
2023-03-27T13:52:27.794Z,37.85
2023-03-27T13:55:24.815Z,35.73
2023-03-27T13:58:08.769Z,34.01
2023-03-27T14:00:43.883Z,34.60
2023-03-27T14:03:49.139Z,36.12
2023-03-27T14:06:53.573Z,32.88
2023-03-27T14:09:25.557Z,33.54
2023-03-27T14:12:17.000Z,33.81
2023-03-27T14:15:09.898Z,34.66
2023-03-27T14:18:03.857Z,34.07
2023-03-27T14:20:39.865Z,33.94
2023-03-27T14:23:14.238Z,32.91
2023-03-27T14:25:49.440Z,36.04
2023-03-27T14:28:55.668Z,32.55
2023-03-27T14:31:24.754Z,35.07
2023-03-27T14:34:04.737Z,34.29
2023-03-27T14:36:42.052Z,35.06
2023-03-27T14:39:27.990Z,36.43
2023-03-27T14:41:58.924Z,37.27
2023-03-27T14:44:31.497Z,41.27
2023-03-27T14:47:15.424Z,37.92
2023-03-27T14:49:46.963Z,38.25
2023-03-27T14:52:25.100Z,39.92
2023-03-27T14:54:55.675Z,39.78
2023-03-27T14:57:25.957Z,41.44
2023-03-27T14:59:55.405Z,42.15
2023-03-27T15:02:31.978Z,41.35
2023-03-27T15:05:14.757Z,43.79
2023-03-27T15:07:44.053Z,47.50
2023-03-27T15:10:31.708Z,44.64
2023-03-27T15:12:59.420Z,45.27
2023-03-27T15:15:44.421Z,46.46
2023-03-27T15:18:36.275Z,49.49
2023-03-27T15:21:14.497Z,52.92
2023-03-27T15:24:24.363Z,52.63
2023-03-27T15:26:53.243Z,53.54
2023-03-27T15:29:28.929Z,54.96
2023-03-27T15:31:59.784Z,56.74
2023-03-27T15:34:46.167Z,56.33
2023-03-27T15:37:24.130Z,59.28
2023-03-27T15:40:22.616Z,60.52
2023-03-27T15:43:00.615Z,61.85
2023-03-27T15:45:56.129Z,65.72
2023-03-27T15:48:38.119Z,65.13
2023-03-27T15:51:15.759Z,65.29
2023-03-27T15:53:46.115Z,65.42
2023-03-27T15:56:13.473Z,66.68
2023-03-27T15:58:48.450Z,67.38
2023-03-27T16:01:23.482Z,67.12
2023-03-27T16:03:52.575Z,68.73
2023-03-27T16:06:30.928Z,69.35
2023-03-27T16:08:59.150Z,72.97
2023-03-27T16:11:43.602Z,71.85
2023-03-27T16:14:26.486Z,70.43
2023-03-27T16:17:12.159Z,73.18
2023-03-27T16:19:44.698Z,72.93
2023-03-27T16:22:13.320Z,71.95
2023-03-27T16:24:40.729Z,71.36
2023-03-27T16:27:10.417Z,73.01
2023-03-27T16:29:38.361Z,73.05
2023-03-27T16:32:06.032Z,75.28
2023-03-27T16:34:33.543Z,74.70
2023-03-27T16:37:00.961Z,76.02
2023-03-27T16:39:33.753Z,76.41
2023-03-27T16:42:01.372Z,77.75
2023-03-27T16:44:29.136Z,77.41
2023-03-27T16:46:56.563Z,77.00
2023-03-27T16:49:23.982Z,77.56
2023-03-27T16:51:51.916Z,77.39
2023-03-27T16:54:19.456Z,77.18
2023-03-27T16:56:50.913Z,78.37
2023-03-27T16:59:19.755Z,79.71
2023-03-27T17:01:47.408Z,79.07
2023-03-27T17:04:15.429Z,80.38
2023-03-27T17:06:43.624Z,80.94
2023-03-27T17:09:12.659Z,80.19
2023-03-27T17:11:41.901Z,81.06
2023-03-27T17:14:09.927Z,79.17
2023-03-27T17:16:38.511Z,80.85
2023-03-27T17:19:06.167Z,80.80
2023-03-27T17:21:33.650Z,82.65
2023-03-27T17:24:02.362Z,81.44
2023-03-27T17:26:34.422Z,80.67
2023-03-27T17:29:06.903Z,80.85
2023-03-27T17:31:35.945Z,80.42
2023-03-27T17:34:03.485Z,80.89
2023-03-27T17:36:41.098Z,81.50
2023-03-27T17:39:10.496Z,82.63
2023-03-27T17:41:38.014Z,82.88
2023-03-27T17:44:07.510Z,83.19
2023-03-27T17:46:36.449Z,84.13
2023-03-27T17:49:03.999Z,82.97
2023-03-27T17:51:31.535Z,84.22
2023-03-27T17:54:05.237Z,83.96
2023-03-27T17:56:32.985Z,84.89
2023-03-27T17:59:00.443Z,83.34
2023-03-27T18:01:32.770Z,84.00
2023-03-27T18:04:00.689Z,83.73
2023-03-27T18:06:28.377Z,86.82
2023-03-27T18:08:56.051Z,90.50
2023-03-27T18:11:23.869Z,88.40
2023-03-27T18:13:53.443Z,87.92
2023-03-27T18:16:23.158Z,85.71
2023-03-27T18:18:52.454Z,85.40
2023-03-27T18:21:20.068Z,85.37
2023-03-27T18:23:47.907Z,85.32
2023-03-27T18:26:16.682Z,85.89
2023-03-27T18:28:44.164Z,85.26
2023-03-27T18:31:12.819Z,85.38
2023-03-27T18:33:40.539Z,85.92
2023-03-27T18:36:10.761Z,88.19
2023-03-27T18:38:41.938Z,88.84
2023-03-27T18:41:11.242Z,88.69
2023-03-27T18:43:46.909Z,88.73
2023-03-27T18:46:17.141Z,87.67
2023-03-27T18:48:46.484Z,88.40
2023-03-27T18:51:15.118Z,88.88
2023-03-27T18:53:43.336Z,86.90
2023-03-27T18:56:13.626Z,87.16
2023-03-27T18:58:43.240Z,90.88
2023-03-27T19:01:11.063Z,89.71
2023-03-27T19:03:39.712Z,90.46
2023-03-27T19:06:09.803Z,89.83
2023-03-27T19:08:38.529Z,88.52
2023-03-27T19:11:13.061Z,87.53
2023-03-27T19:13:41.388Z,87.49
2023-03-27T19:16:14.903Z,88.44
2023-03-27T19:18:42.852Z,87.64
2023-03-27T19:21:10.344Z,89.00
2023-03-27T19:23:37.765Z,89.36
2023-03-27T19:26:11.150Z,89.13
2023-03-27T19:28:40.381Z,89.50
2023-03-27T19:31:10.460Z,88.78
2023-03-27T19:33:39.025Z,89.72
2023-03-27T19:36:07.034Z,88.66
2023-03-27T19:38:34.943Z,89.75
2023-03-27T19:41:02.405Z,90.43
2023-03-27T19:43:30.114Z,91.25
2023-03-27T19:46:14.225Z,92.61
2023-03-27T19:48:50.040Z,93.45
2023-03-27T19:51:17.569Z,93.83
2023-03-27T19:53:44.968Z,94.95
2023-03-27T19:56:12.726Z,96.23
2023-03-27T19:58:40.385Z,96.66
2023-03-27T20:01:07.972Z,98.19
2023-03-27T20:03:38.524Z,98.94
2023-03-27T20:06:13.225Z,100.00
2023-03-27T20:08:45.231Z,100.00
2023-03-27T20:11:13.164Z,100.00
2023-03-27T20:13:52.929Z,100.00
2023-03-27T20:16:26.560Z,100.00
2023-03-27T20:19:03.480Z,100.00
2023-03-27T20:21:36.303Z,100.00
2023-03-27T20:24:05.846Z,100.00
2023-03-27T20:26:39.070Z,100.00
2023-03-27T20:29:12.370Z,100.00
2023-03-27T20:31:41.038Z,100.00
2023-03-27T20:34:09.602Z,100.00
2023-03-27T20:36:39.660Z,100.00
2023-03-27T20:39:08.363Z,100.00
2023-03-27T20:41:39.738Z,100.00
2023-03-27T20:44:35.027Z,100.00
2023-03-27T20:47:12.276Z,100.00
2023-03-27T20:49:45.253Z,100.00
2023-03-27T20:52:15.540Z,100.00
2023-03-27T20:54:43.388Z,100.00
2023-03-27T20:57:12.074Z,100.00
2023-03-27T20:59:39.657Z,100.00
2023-03-27T21:02:07.449Z,100.00
2023-03-27T21:04:34.984Z,100.00
2023-03-27T21:07:02.724Z,100.00
2023-03-27T21:09:31.892Z,100.00
2023-03-27T21:12:01.465Z,100.00
2023-03-27T21:14:28.993Z,100.00
2023-03-27T21:16:56.603Z,100.00
2023-03-27T21:19:24.210Z,100.00
2023-03-27T21:21:52.487Z,100.00
2023-03-27T21:24:20.896Z,100.00
2023-03-27T21:26:48.377Z,100.00
2023-03-27T21:29:18.436Z,100.00
2023-03-27T21:31:46.216Z,100.00
2023-03-27T21:34:13.690Z,100.00
2023-03-27T21:36:41.742Z,100.00
2023-03-27T21:39:09.219Z,100.00
2023-03-27T21:41:37.411Z,100.00
2023-03-27T21:44:05.131Z,100.00
2023-03-27T21:46:32.837Z,100.00
2023-03-27T21:49:00.768Z,100.00
2023-03-27T21:51:28.165Z,100.00
2023-03-27T21:53:55.800Z,100.00
2023-03-27T21:56:23.227Z,100.00
2023-03-27T21:58:50.891Z,100.00
2023-03-27T22:01:18.926Z,100.00
2023-03-27T22:03:47.564Z,100.00
2023-03-27T22:06:15.533Z,100.00
2023-03-27T22:08:43.705Z,100.00
2023-03-27T22:11:12.661Z,100.00
2023-03-27T22:13:43.429Z,100.00
2023-03-27T22:16:14.862Z,100.00
2023-03-27T22:18:43.764Z,100.00
2023-03-27T22:21:17.657Z,100.00
2023-03-27T22:23:45.755Z,100.00
2023-03-27T22:26:13.952Z,100.00
2023-03-27T22:28:42.583Z,100.00
2023-03-27T22:31:10.139Z,100.00
2023-03-27T22:33:37.865Z,100.00
2023-03-27T22:36:09.226Z,100.00
2023-03-27T22:38:37.644Z,100.00
2023-03-27T22:41:07.478Z,100.00
2023-03-27T22:43:35.036Z,100.00
2023-03-27T22:46:16.539Z,100.00
2023-03-27T22:48:44.686Z,100.00
2023-03-27T22:51:13.456Z,100.00
2023-03-27T22:53:44.989Z,100.00
2023-03-27T22:56:12.346Z,100.00
2023-03-27T22:58:39.746Z,100.00
2023-03-27T23:01:07.773Z,100.00
2023-03-27T23:03:37.539Z,100.00
2023-03-27T23:06:06.055Z,100.00
2023-03-27T23:08:36.776Z,100.00
2023-03-27T23:11:05.924Z,100.00
2023-03-27T23:13:34.932Z,100.00
2023-03-27T23:16:03.257Z,100.00
2023-03-27T23:18:30.798Z,100.00
2023-03-27T23:21:03.738Z,100.00
2023-03-27T23:23:32.868Z,100.00
2023-03-27T23:26:00.694Z,100.00
2023-03-27T23:28:33.101Z,100.00
2023-03-27T23:31:03.163Z,100.00
2023-03-27T23:33:38.317Z,100.00
2023-03-27T23:36:21.070Z,100.00
2023-03-27T23:38:49.980Z,100.00
2023-03-27T23:41:18.390Z,100.00
2023-03-27T23:43:46.211Z,100.00
2023-03-27T23:46:14.150Z,100.00
2023-03-27T23:48:43.146Z,100.00
2023-03-27T23:51:13.350Z,100.00
2023-03-27T23:53:44.803Z,100.00
2023-03-27T23:56:12.255Z,100.00
2023-03-27T23:58:39.860Z,100.00
